sensor_id;sensor_type;location;lat;lon;timestamp;P1;durP1;ratioP1;P2;durP2;ratioP2
83732;SDS011;73710;49.968;8.338;2024-03-22T05:06:06;15.88;;;5.53;;
83732;SDS011;73710;49.968;8.338;2024-03-22T05:08:32;12.68;;;5.55;;
83732;SDS011;73710;49.968;8.338;2024-03-22T05:10:58;11.75;;;5.43;;
83732;SDS011;73710;49.968;8.338;2024-03-22T05:13:23;14.80;;;6.50;;
83732;SDS011;73710;49.968;8.338;2024-03-22T05:15:48;9.98;;;5.57;;
83732;SDS011;73710;49.968;8.338;2024-03-22T05:18:14;16.17;;;7.13;;
83732;SDS011;73710;49.968;8.338;2024-03-22T05:20:39;12.50;;;6.50;;
83732;SDS011;73710;49.968;8.338;2024-03-22T05:23:04;11.50;;;5.63;;
83732;SDS011;73710;49.968;8.338;2024-03-22T05:25:30;14.48;;;7.30;;
83732;SDS011;73710;49.968;8.338;2024-03-22T05:27:55;13.27;;;5.80;;
83732;SDS011;73710;49.968;8.338;2024-03-22T05:30:20;11.40;;;4.87;;
83732;SDS011;73710;49.968;8.338;2024-03-22T05:32:46;15.80;;;5.78;;
83732;SDS011;73710;49.968;8.338;2024-03-22T05:35:11;9.50;;;5.03;;
83732;SDS011;73710;49.968;8.338;2024-03-22T05:37:37;9.15;;;5.07;;
83732;SDS011;73710;49.968;8.338;2024-03-22T05:40:02;9.23;;;5.32;;
83732;SDS011;73710;49.968;8.338;2024-03-22T05:42:32;9.88;;;4.95;;
83732;SDS011;73710;49.968;8.338;2024-03-22T05:44:57;14.43;;;6.82;;
83732;SDS011;73710;49.968;8.338;2024-03-22T05:47:23;15.63;;;5.43;;
83732;SDS011;73710;49.968;8.338;2024-03-22T05:49:48;12.65;;;5.03;;
83732;SDS011;73710;49.968;8.338;2024-03-22T05:52:13;12.18;;;5.53;;
83732;SDS011;73710;49.968;8.338;2024-03-22T05:54:39;14.77;;;5.47;;
83732;SDS011;73710;49.968;8.338;2024-03-22T05:57:04;12.65;;;5.82;;
83732;SDS011;73710;49.968;8.338;2024-03-22T05:59:32;12.75;;;6.22;;
83732;SDS011;73710;49.968;8.338;2024-03-22T06:01:58;14.55;;;5.93;;
83732;SDS011;73710;49.968;8.338;2024-03-22T06:04:23;9.07;;;5.68;;
83732;SDS011;73710;49.968;8.338;2024-03-22T06:06:49;15.27;;;7.93;;
83732;SDS011;73710;49.968;8.338;2024-03-22T06:09:15;11.15;;;6.57;;
83732;SDS011;73710;49.968;8.338;2024-03-22T06:11:49;16.45;;;6.53;;
83732;SDS011;73710;49.968;8.338;2024-03-22T06:14:17;15.27;;;7.18;;
83732;SDS011;73710;49.968;8.338;2024-03-22T06:16:43;11.90;;;6.30;;
83732;SDS011;73710;49.968;8.338;2024-03-22T06:19:09;10.65;;;6.13;;
83732;SDS011;73710;49.968;8.338;2024-03-22T06:21:34;10.75;;;5.88;;
83732;SDS011;73710;49.968;8.338;2024-03-22T06:24:00;14.55;;;6.03;;
83732;SDS011;73710;49.968;8.338;2024-03-22T06:26:26;15.20;;;6.68;;
83732;SDS011;73710;49.968;8.338;2024-03-22T06:28:51;14.63;;;6.28;;
83732;SDS011;73710;49.968;8.338;2024-03-22T06:31:17;17.97;;;7.40;;
83732;SDS011;73710;49.968;8.338;2024-03-22T06:33:42;18.45;;;7.35;;
83732;SDS011;73710;49.968;8.338;2024-03-22T06:36:07;13.57;;;6.50;;
83732;SDS011;73710;49.968;8.338;2024-03-22T06:38:33;14.57;;;6.78;;
83732;SDS011;73710;49.968;8.338;2024-03-22T06:40:58;15.15;;;6.63;;
83732;SDS011;73710;49.968;8.338;2024-03-22T06:43:24;17.48;;;6.45;;
83732;SDS011;73710;49.968;8.338;2024-03-22T06:45:50;14.10;;;5.72;;
83732;SDS011;73710;49.968;8.338;2024-03-22T06:48:15;14.80;;;7.20;;
83732;SDS011;73710;49.968;8.338;2024-03-22T06:50:41;12.15;;;5.88;;
83732;SDS011;73710;49.968;8.338;2024-03-22T06:53:07;14.85;;;6.20;;
83732;SDS011;73710;49.968;8.338;2024-03-22T06:55:32;11.80;;;6.47;;
83732;SDS011;73710;49.968;8.338;2024-03-22T06:57:57;16.00;;;7.45;;
83732;SDS011;73710;49.968;8.338;2024-03-22T07:00:23;15.93;;;6.87;;
83732;SDS011;73710;49.968;8.338;2024-03-22T07:02:48;10.18;;;5.82;;
83732;SDS011;73710;49.968;8.338;2024-03-22T07:05:14;13.13;;;6.28;;
83732;SDS011;73710;49.968;8.338;2024-03-22T07:07:40;14.43;;;5.80;;
83732;SDS011;73710;49.968;8.338;2024-03-22T07:10:05;14.38;;;6.70;;
83732;SDS011;73710;49.968;8.338;2024-03-22T07:12:34;12.43;;;5.93;;
83732;SDS011;73710;49.968;8.338;2024-03-22T07:14:59;13.20;;;6.75;;
83732;SDS011;73710;49.968;8.338;2024-03-22T07:17:26;15.80;;;6.78;;
83732;SDS011;73710;49.968;8.338;2024-03-22T07:19:51;14.30;;;6.70;;
83732;SDS011;73710;49.968;8.338;2024-03-22T07:22:17;8.18;;;5.03;;
83732;SDS011;73710;49.968;8.338;2024-03-22T07:24:43;12.93;;;6.53;;
83732;SDS011;73710;49.968;8.338;2024-03-22T07:27:09;10.90;;;5.32;;
83732;SDS011;73710;49.968;8.338;2024-03-22T07:29:35;10.93;;;5.78;;
83732;SDS011;73710;49.968;8.338;2024-03-22T07:32:00;14.38;;;6.45;;
83732;SDS011;73710;49.968;8.338;2024-03-22T07:34:26;11.30;;;5.90;;
83732;SDS011;73710;49.968;8.338;2024-03-22T07:36:51;13.15;;;6.00;;
83732;SDS011;73710;49.968;8.338;2024-03-22T07:39:17;11.73;;;5.68;;
83732;SDS011;73710;49.968;8.338;2024-03-22T07:41:42;12.43;;;6.00;;
83732;SDS011;73710;49.968;8.338;2024-03-22T07:44:07;17.40;;;6.32;;
83732;SDS011;73710;49.968;8.338;2024-03-22T07:46:33;10.00;;;5.47;;
83732;SDS011;73710;49.968;8.338;2024-03-22T07:48:58;13.68;;;6.80;;
83732;SDS011;73710;49.968;8.338;2024-03-22T07:51:24;9.23;;;4.60;;
83732;SDS011;73710;49.968;8.338;2024-03-22T07:53:50;11.23;;;4.88;;
83732;SDS011;73710;49.968;8.338;2024-03-22T07:56:17;10.43;;;4.93;;
83732;SDS011;73710;49.968;8.338;2024-03-22T07:58:42;15.98;;;5.70;;
83732;SDS011;73710;49.968;8.338;2024-03-22T08:01:08;12.52;;;4.70;;
83732;SDS011;73710;49.968;8.338;2024-03-22T08:03:34;11.18;;;4.95;;
83732;SDS011;73710;49.968;8.338;2024-03-22T08:05:59;10.45;;;5.03;;
83732;SDS011;73710;49.968;8.338;2024-03-22T08:08:24;9.73;;;5.18;;
83732;SDS011;73710;49.968;8.338;2024-03-22T08:10:50;10.43;;;5.22;;
83732;SDS011;73710;49.968;8.338;2024-03-22T08:13:16;8.77;;;4.95;;
83732;SDS011;73710;49.968;8.338;2024-03-22T08:15:41;13.33;;;5.60;;
83732;SDS011;73710;49.968;8.338;2024-03-22T08:18:08;8.23;;;5.22;;
83732;SDS011;73710;49.968;8.338;2024-03-22T08:20:34;10.20;;;4.90;;
83732;SDS011;73710;49.968;8.338;2024-03-22T08:22:59;9.32;;;4.85;;
83732;SDS011;73710;49.968;8.338;2024-03-22T08:25:25;11.52;;;5.68;;
83732;SDS011;73710;49.968;8.338;2024-03-22T08:27:50;12.95;;;5.95;;
83732;SDS011;73710;49.968;8.338;2024-03-22T08:30:20;10.20;;;4.28;;
83732;SDS011;73710;49.968;8.338;2024-03-22T08:32:45;11.05;;;5.28;;
83732;SDS011;73710;49.968;8.338;2024-03-22T08:35:11;11.32;;;4.80;;
83732;SDS011;73710;49.968;8.338;2024-03-22T08:37:36;10.27;;;5.00;;
83732;SDS011;73710;49.968;8.338;2024-03-22T08:40:02;13.73;;;5.28;;
83732;SDS011;73710;49.968;8.338;2024-03-22T08:42:29;12.43;;;4.97;;
83732;SDS011;73710;49.968;8.338;2024-03-22T08:44:55;9.32;;;4.45;;
83732;SDS011;73710;49.968;8.338;2024-03-22T08:47:20;8.10;;;3.72;;
83732;SDS011;73710;49.968;8.338;2024-03-22T08:49:46;7.50;;;4.33;;
83732;SDS011;73710;49.968;8.338;2024-03-22T08:52:11;9.20;;;4.45;;
83732;SDS011;73710;49.968;8.338;2024-03-22T08:54:36;6.20;;;3.80;;
83732;SDS011;73710;49.968;8.338;2024-03-22T08:57:02;10.65;;;4.50;;
83732;SDS011;73710;49.968;8.338;2024-03-22T08:59:27;12.23;;;4.65;;
83732;SDS011;73710;49.968;8.338;2024-03-22T09:01:52;8.98;;;3.78;;
83732;SDS011;73710;49.968;8.338;2024-03-22T09:04:18;7.95;;;4.53;;
83732;SDS011;73710;49.968;8.338;2024-03-22T09:06:44;10.43;;;3.67;;
83732;SDS011;73710;49.968;8.338;2024-03-22T09:09:10;5.75;;;3.42;;
83732;SDS011;73710;49.968;8.338;2024-03-22T09:11:36;8.10;;;4.03;;
83732;SDS011;73710;49.968;8.338;2024-03-22T09:14:01;8.40;;;4.25;;
83732;SDS011;73710;49.968;8.338;2024-03-22T09:16:27;5.82;;;3.70;;
83732;SDS011;73710;49.968;8.338;2024-03-22T09:18:52;6.15;;;3.75;;
83732;SDS011;73710;49.968;8.338;2024-03-22T09:21:17;8.85;;;3.78;;
83732;SDS011;73710;49.968;8.338;2024-03-22T09:23:43;12.00;;;4.00;;
83732;SDS011;73710;49.968;8.338;2024-03-22T09:26:08;8.18;;;4.53;;
83732;SDS011;73710;49.968;8.338;2024-03-22T09:28:35;6.35;;;2.97;;
83732;SDS011;73710;49.968;8.338;2024-03-22T09:31:06;6.13;;;3.65;;
83732;SDS011;73710;49.968;8.338;2024-03-22T09:33:33;5.72;;;3.47;;
83732;SDS011;73710;49.968;8.338;2024-03-22T09:35:58;6.40;;;3.75;;
83732;SDS011;73710;49.968;8.338;2024-03-22T09:38:24;7.45;;;3.83;;
83732;SDS011;73710;49.968;8.338;2024-03-22T09:40:50;9.05;;;3.83;;
83732;SDS011;73710;49.968;8.338;2024-03-22T09:43:19;7.20;;;3.50;;
83732;SDS011;73710;49.968;8.338;2024-03-22T09:45:45;6.50;;;2.83;;
83732;SDS011;73710;49.968;8.338;2024-03-22T09:48:15;6.80;;;3.47;;
83732;SDS011;73710;49.968;8.338;2024-03-22T09:50:44;8.70;;;3.95;;
83732;SDS011;73710;49.968;8.338;2024-03-22T09:53:15;11.07;;;3.80;;
83732;SDS011;73710;49.968;8.338;2024-03-22T09:55:44;4.97;;;3.65;;
83732;SDS011;73710;49.968;8.338;2024-03-22T09:58:10;5.65;;;3.72;;
83732;SDS011;73710;49.968;8.338;2024-03-22T10:00:35;7.95;;;3.35;;
83732;SDS011;73710;49.968;8.338;2024-03-22T10:03:01;9.15;;;3.95;;
83732;SDS011;73710;49.968;8.338;2024-03-22T10:05:29;5.28;;;3.40;;
83732;SDS011;73710;49.968;8.338;2024-03-22T10:07:54;5.60;;;2.78;;
83732;SDS011;73710;49.968;8.338;2024-03-22T10:10:20;4.55;;;3.15;;
83732;SDS011;73710;49.968;8.338;2024-03-22T10:12:46;5.90;;;3.58;;
83732;SDS011;73710;49.968;8.338;2024-03-22T10:15:12;5.28;;;3.30;;
83732;SDS011;73710;49.968;8.338;2024-03-22T10:17:39;7.32;;;3.50;;
83732;SDS011;73710;49.968;8.338;2024-03-22T10:20:05;7.45;;;3.78;;
83732;SDS011;73710;49.968;8.338;2024-03-22T10:22:48;7.13;;;3.88;;
83732;SDS011;73710;49.968;8.338;2024-03-22T10:25:14;6.35;;;3.60;;
83732;SDS011;73710;49.968;8.338;2024-03-22T10:27:40;7.53;;;3.90;;
83732;SDS011;73710;49.968;8.338;2024-03-22T10:30:07;7.18;;;4.30;;
83732;SDS011;73710;49.968;8.338;2024-03-22T10:32:35;5.50;;;3.55;;
83732;SDS011;73710;49.968;8.338;2024-03-22T10:35:02;6.32;;;3.58;;
83732;SDS011;73710;49.968;8.338;2024-03-22T10:37:32;7.43;;;4.03;;
83732;SDS011;73710;49.968;8.338;2024-03-22T10:40:02;9.43;;;3.88;;
83732;SDS011;73710;49.968;8.338;2024-03-22T10:42:38;5.60;;;3.55;;
83732;SDS011;73710;49.968;8.338;2024-03-22T10:45:05;6.45;;;4.03;;
83732;SDS011;73710;49.968;8.338;2024-03-22T10:47:32;6.75;;;3.78;;
83732;SDS011;73710;49.968;8.338;2024-03-22T10:50:06;6.65;;;3.65;;
83732;SDS011;73710;49.968;8.338;2024-03-22T10:52:35;7.32;;;3.60;;
83732;SDS011;73710;49.968;8.338;2024-03-22T10:55:05;5.75;;;3.70;;
83732;SDS011;73710;49.968;8.338;2024-03-22T10:57:33;5.85;;;3.25;;
83732;SDS011;73710;49.968;8.338;2024-03-22T11:00:03;5.20;;;3.35;;
83732;SDS011;73710;49.968;8.338;2024-03-22T11:02:37;4.78;;;2.75;;
83732;SDS011;73710;49.968;8.338;2024-03-22T11:05:04;5.68;;;2.70;;
83732;SDS011;73710;49.968;8.338;2024-03-22T11:07:30;7.22;;;2.85;;
83732;SDS011;73710;49.968;8.338;2024-03-22T11:09:57;5.10;;;2.53;;
83732;SDS011;73710;49.968;8.338;2024-03-22T11:12:27;6.28;;;2.70;;
83732;SDS011;73710;49.968;8.338;2024-03-22T11:14:56;5.03;;;2.53;;
83732;SDS011;73710;49.968;8.338;2024-03-22T11:17:21;9.18;;;2.83;;
83732;SDS011;73710;49.968;8.338;2024-03-22T11:19:53;5.80;;;2.72;;
83732;SDS011;73710;49.968;8.338;2024-03-22T11:22:20;6.82;;;2.95;;
83732;SDS011;73710;49.968;8.338;2024-03-22T11:24:45;4.28;;;2.55;;
83732;SDS011;73710;49.968;8.338;2024-03-22T11:27:11;5.60;;;3.05;;
83732;SDS011;73710;49.968;8.338;2024-03-22T11:29:38;5.18;;;2.70;;
83732;SDS011;73710;49.968;8.338;2024-03-22T11:32:06;5.50;;;2.97;;
83732;SDS011;73710;49.968;8.338;2024-03-22T11:34:34;4.40;;;2.70;;
83732;SDS011;73710;49.968;8.338;2024-03-22T11:37:00;5.32;;;2.70;;
83732;SDS011;73710;49.968;8.338;2024-03-22T11:39:26;5.35;;;2.80;;
83732;SDS011;73710;49.968;8.338;2024-03-22T11:41:51;5.45;;;2.85;;
83732;SDS011;73710;49.968;8.338;2024-03-22T11:44:17;5.63;;;2.67;;
83732;SDS011;73710;49.968;8.338;2024-03-22T11:46:43;4.50;;;3.10;;
83732;SDS011;73710;49.968;8.338;2024-03-22T11:49:10;4.97;;;3.15;;
83732;SDS011;73710;49.968;8.338;2024-03-22T11:51:36;7.78;;;3.78;;
83732;SDS011;73710;49.968;8.338;2024-03-22T11:54:02;6.55;;;3.80;;
83732;SDS011;73710;49.968;8.338;2024-03-22T11:56:28;4.97;;;2.92;;
83732;SDS011;73710;49.968;8.338;2024-03-22T11:59:00;5.00;;;3.65;;
83732;SDS011;73710;49.968;8.338;2024-03-22T12:01:26;5.68;;;3.60;;
83732;SDS011;73710;49.968;8.338;2024-03-22T12:03:52;5.63;;;3.50;;
83732;SDS011;73710;49.968;8.338;2024-03-22T12:06:18;6.10;;;3.65;;
83732;SDS011;73710;49.968;8.338;2024-03-22T12:08:43;7.63;;;3.47;;
83732;SDS011;73710;49.968;8.338;2024-03-22T12:11:09;6.67;;;3.73;;
83732;SDS011;73710;49.968;8.338;2024-03-22T12:13:35;8.38;;;3.40;;
83732;SDS011;73710;49.968;8.338;2024-03-22T12:16:01;5.82;;;3.50;;
83732;SDS011;73710;49.968;8.338;2024-03-22T12:18:28;5.97;;;3.85;;
83732;SDS011;73710;49.968;8.338;2024-03-22T12:20:54;6.40;;;3.63;;
83732;SDS011;73710;49.968;8.338;2024-03-22T12:23:19;5.82;;;3.67;;
83732;SDS011;73710;49.968;8.338;2024-03-22T12:25:44;6.90;;;3.53;;
83732;SDS011;73710;49.968;8.338;2024-03-22T12:28:10;9.15;;;4.20;;
83732;SDS011;73710;49.968;8.338;2024-03-22T12:30:35;6.63;;;3.67;;
83732;SDS011;73710;49.968;8.338;2024-03-22T12:33:01;6.53;;;3.50;;
83732;SDS011;73710;49.968;8.338;2024-03-22T12:35:26;8.13;;;3.65;;
83732;SDS011;73710;49.968;8.338;2024-03-22T12:37:52;7.90;;;4.30;;
83732;SDS011;73710;49.968;8.338;2024-03-22T12:40:18;6.93;;;3.75;;
83732;SDS011;73710;49.968;8.338;2024-03-22T12:42:44;6.68;;;3.42;;
83732;SDS011;73710;49.968;8.338;2024-03-22T12:45:09;6.70;;;3.47;;
83732;SDS011;73710;49.968;8.338;2024-03-22T12:47:36;6.50;;;3.22;;
83732;SDS011;73710;49.968;8.338;2024-03-22T12:50:01;5.80;;;3.53;;
83732;SDS011;73710;49.968;8.338;2024-03-22T12:52:26;5.80;;;3.75;;
83732;SDS011;73710;49.968;8.338;2024-03-22T12:54:52;4.68;;;3.15;;
83732;SDS011;73710;49.968;8.338;2024-03-22T12:57:17;5.68;;;3.25;;
83732;SDS011;73710;49.968;8.338;2024-03-22T12:59:43;7.22;;;3.83;;
83732;SDS011;73710;49.968;8.338;2024-03-22T13:02:08;7.60;;;3.10;;
83732;SDS011;73710;49.968;8.338;2024-03-22T13:04:34;6.35;;;3.42;;
83732;SDS011;73710;49.968;8.338;2024-03-22T13:06:59;6.28;;;3.30;;
83732;SDS011;73710;49.968;8.338;2024-03-22T13:09:24;7.25;;;4.13;;
83732;SDS011;73710;49.968;8.338;2024-03-22T13:11:50;7.50;;;4.18;;
83732;SDS011;73710;49.968;8.338;2024-03-22T13:14:15;7.82;;;4.50;;
83732;SDS011;73710;49.968;8.338;2024-03-22T13:16:41;5.28;;;3.22;;
83732;SDS011;73710;49.968;8.338;2024-03-22T13:19:06;8.52;;;4.15;;
83732;SDS011;73710;49.968;8.338;2024-03-22T13:21:37;9.52;;;4.45;;
83732;SDS011;73710;49.968;8.338;2024-03-22T13:24:02;7.70;;;4.28;;
83732;SDS011;73710;49.968;8.338;2024-03-22T13:26:28;6.40;;;4.38;;
83732;SDS011;73710;49.968;8.338;2024-03-22T13:28:53;9.60;;;4.13;;
83732;SDS011;73710;49.968;8.338;2024-03-22T13:31:19;7.78;;;4.35;;
83732;SDS011;73710;49.968;8.338;2024-03-22T13:33:44;7.20;;;4.38;;
83732;SDS011;73710;49.968;8.338;2024-03-22T13:36:09;7.40;;;4.43;;
83732;SDS011;73710;49.968;8.338;2024-03-22T13:38:35;9.18;;;4.93;;
83732;SDS011;73710;49.968;8.338;2024-03-22T13:41:00;8.82;;;4.93;;
83732;SDS011;73710;49.968;8.338;2024-03-22T13:43:29;7.20;;;4.53;;
83732;SDS011;73710;49.968;8.338;2024-03-22T13:45:54;8.52;;;4.75;;
83732;SDS011;73710;49.968;8.338;2024-03-22T13:48:21;8.25;;;4.93;;
83732;SDS011;73710;49.968;8.338;2024-03-22T13:50:53;10.43;;;5.47;;
83732;SDS011;73710;49.968;8.338;2024-03-22T13:53:19;9.00;;;4.40;;
83732;SDS011;73710;49.968;8.338;2024-03-22T13:55:49;9.50;;;4.88;;
83732;SDS011;73710;49.968;8.338;2024-03-22T13:58:15;9.15;;;5.40;;
83732;SDS011;73710;49.968;8.338;2024-03-22T14:00:41;9.98;;;5.00;;
83732;SDS011;73710;49.968;8.338;2024-03-22T14:03:06;9.10;;;4.90;;
83732;SDS011;73710;49.968;8.338;2024-03-22T14:05:32;9.48;;;5.70;;
83732;SDS011;73710;49.968;8.338;2024-03-22T14:07:58;9.98;;;5.70;;
83732;SDS011;73710;49.968;8.338;2024-03-22T14:10:24;8.90;;;5.15;;
83732;SDS011;73710;49.968;8.338;2024-03-22T14:12:51;10.90;;;5.35;;
83732;SDS011;73710;49.968;8.338;2024-03-22T14:15:17;10.18;;;5.35;;
83732;SDS011;73710;49.968;8.338;2024-03-22T14:17:42;11.15;;;6.32;;
83732;SDS011;73710;49.968;8.338;2024-03-22T14:20:08;10.32;;;5.20;;
83732;SDS011;73710;49.968;8.338;2024-03-22T14:22:40;7.28;;;5.32;;
83732;SDS011;73710;49.968;8.338;2024-03-22T14:25:06;9.18;;;6.10;;
83732;SDS011;73710;49.968;8.338;2024-03-22T14:27:33;10.70;;;6.10;;
83732;SDS011;73710;49.968;8.338;2024-03-22T14:30:00;9.82;;;5.75;;
83732;SDS011;73710;49.968;8.338;2024-03-22T14:32:25;11.02;;;5.28;;
83732;SDS011;73710;49.968;8.338;2024-03-22T14:34:51;8.35;;;5.18;;
83732;SDS011;73710;49.968;8.338;2024-03-22T14:37:17;12.38;;;5.90;;
83732;SDS011;73710;49.968;8.338;2024-03-22T14:39:42;8.73;;;5.03;;
83732;SDS011;73710;49.968;8.338;2024-03-22T14:42:08;12.73;;;6.80;;
83732;SDS011;73710;49.968;8.338;2024-03-22T14:44:33;7.55;;;5.03;;
83732;SDS011;73710;49.968;8.338;2024-03-22T14:46:59;10.27;;;5.82;;
83732;SDS011;73710;49.968;8.338;2024-03-22T14:49:24;7.68;;;5.57;;
83732;SDS011;73710;49.968;8.338;2024-03-22T14:51:50;8.27;;;5.68;;
83732;SDS011;73710;49.968;8.338;2024-03-22T14:54:16;9.20;;;5.97;;
83732;SDS011;73710;49.968;8.338;2024-03-22T14:56:41;8.07;;;4.93;;
83732;SDS011;73710;49.968;8.338;2024-03-22T14:59:07;10.02;;;5.85;;
83732;SDS011;73710;49.968;8.338;2024-03-22T15:01:32;11.40;;;5.45;;
83732;SDS011;73710;49.968;8.338;2024-03-22T15:03:58;9.90;;;5.70;;
83732;SDS011;73710;49.968;8.338;2024-03-22T15:06:23;12.60;;;5.55;;
83732;SDS011;73710;49.968;8.338;2024-03-22T15:08:49;9.75;;;5.78;;
83732;SDS011;73710;49.968;8.338;2024-03-22T15:11:14;7.13;;;5.47;;
83732;SDS011;73710;49.968;8.338;2024-03-22T15:13:40;9.73;;;5.22;;
83732;SDS011;73710;49.968;8.338;2024-03-22T15:16:05;9.23;;;5.28;;
83732;SDS011;73710;49.968;8.338;2024-03-22T15:18:31;8.95;;;5.97;;
83732;SDS011;73710;49.968;8.338;2024-03-22T15:20:56;8.48;;;5.18;;
83732;SDS011;73710;49.968;8.338;2024-03-22T15:23:22;10.23;;;5.95;;
83732;SDS011;73710;49.968;8.338;2024-03-22T15:25:47;9.18;;;5.53;;
83732;SDS011;73710;49.968;8.338;2024-03-22T15:28:14;7.65;;;5.28;;
83732;SDS011;73710;49.968;8.338;2024-03-22T15:30:39;6.75;;;4.88;;
83732;SDS011;73710;49.968;8.338;2024-03-22T15:33:07;9.88;;;5.85;;
83732;SDS011;73710;49.968;8.338;2024-03-22T15:35:34;7.75;;;4.75;;
83732;SDS011;73710;49.968;8.338;2024-03-22T15:37:59;12.93;;;6.65;;
83732;SDS011;73710;49.968;8.338;2024-03-22T15:40:25;6.88;;;4.95;;
83732;SDS011;73710;49.968;8.338;2024-03-22T15:42:50;6.78;;;4.97;;
83732;SDS011;73710;49.968;8.338;2024-03-22T15:45:16;8.32;;;5.10;;
83732;SDS011;73710;49.968;8.338;2024-03-22T15:47:43;7.97;;;6.28;;
83732;SDS011;73710;49.968;8.338;2024-03-22T15:50:11;11.50;;;6.55;;
83732;SDS011;73710;49.968;8.338;2024-03-22T15:52:36;9.10;;;6.07;;
83732;SDS011;73710;49.968;8.338;2024-03-22T15:55:02;7.55;;;6.03;;
83732;SDS011;73710;49.968;8.338;2024-03-22T15:57:27;8.88;;;6.43;;
83732;SDS011;73710;49.968;8.338;2024-03-22T15:59:53;9.90;;;5.78;;
83732;SDS011;73710;49.968;8.338;2024-03-22T16:02:19;8.45;;;6.47;;
83732;SDS011;73710;49.968;8.338;2024-03-22T16:04:44;9.75;;;5.78;;
83732;SDS011;73710;49.968;8.338;2024-03-22T16:07:10;9.60;;;6.32;;
83732;SDS011;73710;49.968;8.338;2024-03-22T16:09:36;8.52;;;5.85;;
83732;SDS011;73710;49.968;8.338;2024-03-22T16:12:03;10.55;;;6.18;;
83732;SDS011;73710;49.968;8.338;2024-03-22T16:14:29;7.10;;;5.20;;
83732;SDS011;73710;49.968;8.338;2024-03-22T16:16:54;7.28;;;5.07;;
83732;SDS011;73710;49.968;8.338;2024-03-22T16:19:20;11.52;;;5.60;;
83732;SDS011;73710;49.968;8.338;2024-03-22T16:21:45;8.85;;;5.70;;
83732;SDS011;73710;49.968;8.338;2024-03-22T16:24:11;9.20;;;5.60;;
83732;SDS011;73710;49.968;8.338;2024-03-22T16:26:36;8.05;;;4.88;;
83732;SDS011;73710;49.968;8.338;2024-03-22T16:29:01;8.82;;;5.82;;
83732;SDS011;73710;49.968;8.338;2024-03-22T16:31:28;6.40;;;4.68;;
83732;SDS011;73710;49.968;8.338;2024-03-22T16:33:54;10.00;;;5.55;;
83732;SDS011;73710;49.968;8.338;2024-03-22T16:36:20;7.18;;;4.80;;
83732;SDS011;73710;49.968;8.338;2024-03-22T16:38:45;10.15;;;5.20;;
83732;SDS011;73710;49.968;8.338;2024-03-22T16:41:10;9.48;;;5.70;;
83732;SDS011;73710;49.968;8.338;2024-03-22T16:43:36;8.30;;;5.45;;
83732;SDS011;73710;49.968;8.338;2024-03-22T16:46:03;9.73;;;5.95;;
83732;SDS011;73710;49.968;8.338;2024-03-22T16:48:28;7.65;;;5.43;;
83732;SDS011;73710;49.968;8.338;2024-03-22T16:50:54;8.35;;;5.50;;
83732;SDS011;73710;49.968;8.338;2024-03-22T16:53:22;8.52;;;5.32;;
83732;SDS011;73710;49.968;8.338;2024-03-22T16:55:48;9.95;;;5.93;;
83732;SDS011;73710;49.968;8.338;2024-03-22T16:58:14;14.90;;;5.97;;
83732;SDS011;73710;49.968;8.338;2024-03-22T17:00:40;7.85;;;4.93;;
83732;SDS011;73710;49.968;8.338;2024-03-22T17:03:05;14.10;;;5.70;;
83732;SDS011;73710;49.968;8.338;2024-03-22T17:05:31;12.57;;;5.88;;
83732;SDS011;73710;49.968;8.338;2024-03-22T17:07:57;7.85;;;5.57;;
83732;SDS011;73710;49.968;8.338;2024-03-22T17:10:22;7.25;;;5.05;;
83732;SDS011;73710;49.968;8.338;2024-03-22T17:12:48;10.00;;;6.72;;
83732;SDS011;73710;49.968;8.338;2024-03-22T17:15:13;9.07;;;4.75;;
83732;SDS011;73710;49.968;8.338;2024-03-22T17:17:39;8.25;;;5.28;;
83732;SDS011;73710;49.968;8.338;2024-03-22T17:20:04;8.73;;;4.93;;
83732;SDS011;73710;49.968;8.338;2024-03-22T17:22:30;7.60;;;4.60;;
83732;SDS011;73710;49.968;8.338;2024-03-22T17:24:56;8.00;;;5.40;;
83732;SDS011;73710;49.968;8.338;2024-03-22T17:27:21;7.95;;;5.68;;
83732;SDS011;73710;49.968;8.338;2024-03-22T17:29:47;10.60;;;5.40;;
83732;SDS011;73710;49.968;8.338;2024-03-22T17:32:13;7.82;;;4.50;;
83732;SDS011;73710;49.968;8.338;2024-03-22T17:34:38;6.72;;;4.25;;
83732;SDS011;73710;49.968;8.338;2024-03-22T17:37:04;8.30;;;4.63;;
83732;SDS011;73710;49.968;8.338;2024-03-22T17:39:30;6.70;;;4.57;;
83732;SDS011;73710;49.968;8.338;2024-03-22T17:41:56;6.40;;;4.50;;
83732;SDS011;73710;49.968;8.338;2024-03-22T17:44:22;9.60;;;5.28;;
83732;SDS011;73710;49.968;8.338;2024-03-22T17:46:48;9.27;;;5.22;;
83732;SDS011;73710;49.968;8.338;2024-03-22T17:49:13;8.02;;;4.45;;
83732;SDS011;73710;49.968;8.338;2024-03-22T17:51:39;8.75;;;4.90;;
83732;SDS011;73710;49.968;8.338;2024-03-22T17:54:04;6.75;;;4.55;;
83732;SDS011;73710;49.968;8.338;2024-03-22T17:56:30;10.77;;;5.53;;
83732;SDS011;73710;49.968;8.338;2024-03-22T17:58:55;7.38;;;5.38;;
83732;SDS011;73710;49.968;8.338;2024-03-22T18:01:20;8.98;;;4.75;;
83732;SDS011;73710;49.968;8.338;2024-03-22T18:03:46;7.38;;;5.13;;
83732;SDS011;73710;49.968;8.338;2024-03-22T18:06:13;8.13;;;4.60;;
83732;SDS011;73710;49.968;8.338;2024-03-22T18:08:38;7.60;;;4.53;;
83732;SDS011;73710;49.968;8.338;2024-03-22T18:11:04;8.93;;;5.35;;
83732;SDS011;73710;49.968;8.338;2024-03-22T18:13:29;10.37;;;5.73;;
83732;SDS011;73710;49.968;8.338;2024-03-22T18:15:57;7.60;;;4.65;;
83732;SDS011;73710;49.968;8.338;2024-03-22T18:18:22;9.65;;;5.05;;
83732;SDS011;73710;49.968;8.338;2024-03-22T18:20:47;8.80;;;5.55;;
83732;SDS011;73710;49.968;8.338;2024-03-22T18:23:16;6.78;;;5.07;;
83732;SDS011;73710;49.968;8.338;2024-03-22T18:25:43;11.10;;;5.53;;
83732;SDS011;73710;49.968;8.338;2024-03-22T18:28:14;8.50;;;5.85;;
83732;SDS011;73710;49.968;8.338;2024-03-22T18:30:40;14.98;;;6.75;;
83732;SDS011;73710;49.968;8.338;2024-03-22T18:33:05;8.15;;;5.25;;
83732;SDS011;73710;49.968;8.338;2024-03-22T18:35:31;11.32;;;5.50;;
83732;SDS011;73710;49.968;8.338;2024-03-22T18:37:57;9.50;;;5.75;;
83732;SDS011;73710;49.968;8.338;2024-03-22T18:40:22;7.88;;;4.82;;
83732;SDS011;73710;49.968;8.338;2024-03-22T18:42:48;8.32;;;5.57;;
83732;SDS011;73710;49.968;8.338;2024-03-22T18:45:14;10.68;;;6.18;;
83732;SDS011;73710;49.968;8.338;2024-03-22T18:47:39;10.43;;;4.97;;
83732;SDS011;73710;49.968;8.338;2024-03-22T18:50:04;13.45;;;5.72;;
83732;SDS011;73710;49.968;8.338;2024-03-22T18:52:33;10.63;;;5.50;;
83732;SDS011;73710;49.968;8.338;2024-03-22T18:54:59;12.02;;;6.03;;
83732;SDS011;73710;49.968;8.338;2024-03-22T18:57:28;10.00;;;5.70;;
83732;SDS011;73710;49.968;8.338;2024-03-22T18:59:53;8.88;;;5.82;;
83732;SDS011;73710;49.968;8.338;2024-03-22T19:02:18;11.65;;;5.80;;
83732;SDS011;73710;49.968;8.338;2024-03-22T19:04:44;11.63;;;5.38;;
83732;SDS011;73710;49.968;8.338;2024-03-22T19:07:09;10.93;;;5.13;;
83732;SDS011;73710;49.968;8.338;2024-03-22T19:09:35;11.23;;;5.80;;
83732;SDS011;73710;49.968;8.338;2024-03-22T19:12:01;12.13;;;6.55;;
83732;SDS011;73710;49.968;8.338;2024-03-22T19:14:26;10.27;;;5.75;;
83732;SDS011;73710;49.968;8.338;2024-03-22T19:16:51;11.10;;;6.13;;
83732;SDS011;73710;49.968;8.338;2024-03-22T19:19:17;19.43;;;6.27;;
83732;SDS011;73710;49.968;8.338;2024-03-22T19:21:46;10.07;;;5.45;;
83732;SDS011;73710;49.968;8.338;2024-03-22T19:24:12;11.00;;;6.25;;
83732;SDS011;73710;49.968;8.338;2024-03-22T19:26:39;11.20;;;6.40;;
83732;SDS011;73710;49.968;8.338;2024-03-22T19:29:09;9.88;;;6.05;;
83732;SDS011;73710;49.968;8.338;2024-03-22T19:31:35;13.00;;;6.75;;
83732;SDS011;73710;49.968;8.338;2024-03-22T19:34:02;9.38;;;5.80;;
83732;SDS011;73710;49.968;8.338;2024-03-22T19:36:27;11.63;;;6.18;;
83732;SDS011;73710;49.968;8.338;2024-03-22T19:38:53;8.65;;;5.05;;
83732;SDS011;73710;49.968;8.338;2024-03-22T19:41:19;10.88;;;5.57;;